createdAt,value
2019-04-11T00:00:55.682Z,4.61
2019-04-11T00:01:54.373Z,4.65
2019-04-11T00:02:55.462Z,4.54
2019-04-11T00:03:54.201Z,4.59
2019-04-11T00:04:54.903Z,4.58
2019-04-11T00:05:55.169Z,4.55
2019-04-11T00:06:54.232Z,4.6
2019-04-11T00:07:54.519Z,4.62
2019-04-11T00:08:54.507Z,4.61
2019-04-11T00:09:54.885Z,4.56
2019-04-11T00:10:55.469Z,4.58
2019-04-11T00:11:54.657Z,4.56
2019-04-11T00:12:55.053Z,4.55
2019-04-11T00:13:54.154Z,4.58
2019-04-11T00:14:54.144Z,4.56
2019-04-11T00:15:55.310Z,4.54
2019-04-11T00:16:55.582Z,4.51
2019-04-11T00:17:54.785Z,4.54
2019-04-11T00:18:55.016Z,4.51
2019-04-11T00:19:54.118Z,4.51
2019-04-11T00:20:54.166Z,4.54
2019-04-11T00:21:55.450Z,4.52
2019-04-11T00:22:54.387Z,4.55
2019-04-11T00:23:54.895Z,4.51
2019-04-11T00:24:55.422Z,4.56
2019-04-11T00:25:54.165Z,4.6
2019-04-11T00:26:55.156Z,4.51
2019-04-11T00:27:54.826Z,4.62
2019-04-11T00:28:54.397Z,4.6
2019-04-11T00:29:54.150Z,4.6
2019-04-11T00:30:54.968Z,4.56
2019-04-11T00:31:55.078Z,4.56
2019-04-11T00:32:54.147Z,4.54
2019-04-11T00:33:56.097Z,4.55
2019-04-11T00:34:55.527Z,4.57
2019-04-11T00:35:54.162Z,4.56
2019-04-11T00:36:55.120Z,4.61
2019-04-11T00:37:54.140Z,4.61
2019-04-11T00:38:55.391Z,4.64
2019-04-11T00:39:54.325Z,4.56
2019-04-11T00:40:54.892Z,4.55
2019-04-11T00:41:54.645Z,4.57
2019-04-11T00:42:54.943Z,4.56
2019-04-11T00:43:54.886Z,4.61
2019-04-11T00:44:55.172Z,4.54
2019-04-11T00:45:54.414Z,4.56
2019-04-11T00:46:54.163Z,4.52
2019-04-11T00:47:55.445Z,4.48
2019-04-11T00:48:55.887Z,4.52
2019-04-11T00:49:54.947Z,4.54
2019-04-11T00:50:54.133Z,4.59
2019-04-11T00:51:54.229Z,4.6
2019-04-11T00:52:54.169Z,4.58
2019-04-11T00:53:54.362Z,4.62
2019-04-11T00:54:55.537Z,4.65
2019-04-11T00:55:54.149Z,4.69
2019-04-11T00:56:54.951Z,4.67
2019-04-11T00:57:55.248Z,4.54
2019-04-11T00:58:54.431Z,4.59
2019-04-11T00:59:54.559Z,4.61
2019-04-11T01:00:54.084Z,4.59
2019-04-11T01:01:54.274Z,4.61
2019-04-11T01:02:54.179Z,4.59
2019-04-11T01:03:56.022Z,4.64
2019-04-11T01:04:54.151Z,4.51
2019-04-11T01:05:58.409Z,4.56
2019-04-11T01:06:54.625Z,4.59
2019-04-11T01:07:54.093Z,4.55
2019-04-11T01:08:54.174Z,4.56
2019-04-11T01:09:55.036Z,4.54
2019-04-11T01:10:55.358Z,4.49
2019-04-11T01:11:54.553Z,4.5
2019-04-11T01:12:54.255Z,4.54
2019-04-11T01:13:55.965Z,4.58
2019-04-11T01:14:55.526Z,4.57
2019-04-11T01:15:54.646Z,4.59
2019-04-11T01:16:54.095Z,4.6
2019-04-11T01:17:54.103Z,4.63
2019-04-11T01:18:55.398Z,4.59
2019-04-11T01:19:55.551Z,4.62
2019-04-11T01:20:54.105Z,4.64
2019-04-11T01:21:55.213Z,4.69
2019-04-11T01:22:54.449Z,4.67
2019-04-11T01:23:54.150Z,4.58
2019-04-11T01:24:54.064Z,4.59
2019-04-11T01:25:55.162Z,4.59
2019-04-11T01:26:55.416Z,4.6
2019-04-11T01:27:54.550Z,4.63
2019-04-11T01:28:55.610Z,4.67
2019-04-11T01:29:54.098Z,4.66
2019-04-11T01:30:54.077Z,4.6
2019-04-11T01:31:54.191Z,4.59
2019-04-11T01:32:55.087Z,4.64
2019-04-11T01:33:54.076Z,4.65
2019-04-11T01:34:55.218Z,4.69
2019-04-11T01:35:54.076Z,4.73
2019-04-11T01:36:55.215Z,4.77
2019-04-11T01:37:54.040Z,4.73
2019-04-11T01:38:55.024Z,4.72
2019-04-11T01:39:54.134Z,4.74
2019-04-11T01:40:54.236Z,4.77
2019-04-11T01:41:55.459Z,4.8
2019-04-11T01:42:54.074Z,4.79
2019-04-11T01:44:09.046Z,4.8
2019-04-11T01:44:55.056Z,4.79
2019-04-11T01:45:54.062Z,4.82
2019-04-11T01:46:54.354Z,4.81
2019-04-11T01:47:55.444Z,4.87
2019-04-11T01:48:54.041Z,4.83
2019-04-11T01:49:54.787Z,4.85
2019-04-11T01:50:54.044Z,4.86
2019-04-11T01:51:54.150Z,4.84
2019-04-11T01:52:55.226Z,4.81
2019-04-11T01:53:55.493Z,4.82
2019-04-11T01:54:54.413Z,4.87
2019-04-11T01:55:54.170Z,4.87
2019-04-11T01:56:54.036Z,4.85
2019-04-11T01:57:54.287Z,4.91
2019-04-11T01:58:55.475Z,4.94
2019-04-11T01:59:54.037Z,4.92
2019-04-11T02:00:54.956Z,4.88
2019-04-11T02:01:55.095Z,4.88
2019-04-11T02:02:55.117Z,4.93
2019-04-11T02:03:55.493Z,4.89
2019-04-11T02:04:54.604Z,4.89
2019-04-11T02:05:54.046Z,4.88
2019-04-11T02:06:54.451Z,4.91
2019-04-11T02:07:55.479Z,4.87
2019-04-11T02:08:54.038Z,4.89
2019-04-11T02:09:55.010Z,4.87
2019-04-11T02:10:54.228Z,4.88
2019-04-11T02:11:54.215Z,4.92
2019-04-11T02:12:55.363Z,4.91
2019-04-11T02:14:22.577Z,4.91
2019-04-11T02:14:53.999Z,4.9
2019-04-11T02:16:01.551Z,4.91
2019-04-11T02:16:54.041Z,4.91
2019-04-11T02:17:55.280Z,4.92
2019-04-11T02:18:54.258Z,4.91
2019-04-11T02:19:54.141Z,4.91
2019-04-11T02:20:55.923Z,4.9
2019-04-11T02:21:53.998Z,4.87
2019-04-11T02:22:55.234Z,4.86
2019-04-11T02:23:55.405Z,4.83
2019-04-11T02:24:54.524Z,4.84
2019-04-11T02:25:54.717Z,4.85
2019-04-11T02:26:54.828Z,4.9
2019-04-11T02:27:54.481Z,4.92
2019-04-11T02:28:55.452Z,4.91
2019-04-11T02:29:55.420Z,4.88
2019-04-11T02:30:56.964Z,4.93
2019-04-11T02:32:07.498Z,4.91
2019-04-11T02:32:54.053Z,4.89
2019-04-11T02:34:02.475Z,4.89
2019-04-11T02:35:08.693Z,4.89
2019-04-11T02:35:57.415Z,4.88
2019-04-11T02:37:02.574Z,4.9
2019-04-11T02:38:00.439Z,4.91
2019-04-11T02:39:19.685Z,4.91
2019-04-11T02:40:00.244Z,4.88
2019-04-11T02:40:58.405Z,4.9
2019-04-11T02:42:03.818Z,4.88
2019-04-11T02:42:55.179Z,4.84
2019-04-11T02:44:03.395Z,4.83
2019-04-11T02:47:32.375Z,4.81
2019-04-11T02:47:57.337Z,4.8
2019-04-11T02:49:03.392Z,4.82
2019-04-11T02:49:57.792Z,4.84
2019-04-11T02:51:04.855Z,4.82
2019-04-11T02:51:56.317Z,4.81
2019-04-11T02:52:54.215Z,4.81
2019-04-11T02:53:59.175Z,4.81
2019-04-11T02:54:54.801Z,4.82
2019-04-11T02:56:02.862Z,4.81
2019-04-11T02:56:55.268Z,4.76
2019-04-11T02:58:01.844Z,4.81
2019-04-11T02:58:56.841Z,4.78
2019-04-11T02:59:56.761Z,4.78
2019-04-11T03:01:11.800Z,4.78
2019-04-11T03:01:53.955Z,4.78
2019-04-11T03:02:54.370Z,4.77
2019-04-11T03:04:01.704Z,4.73
2019-04-11T03:04:56.860Z,4.75
2019-04-11T03:06:04.622Z,4.78
2019-04-11T03:06:57.600Z,4.78
2019-04-11T03:08:00.210Z,4.79
2019-04-11T03:08:59.485Z,4.79
2019-04-11T03:09:57.109Z,4.79
2019-04-11T03:11:01.344Z,4.75
2019-04-11T03:11:59.601Z,4.75
2019-04-11T03:12:59.006Z,4.78
2019-04-11T03:13:55.294Z,4.82
2019-04-11T03:17:38.417Z,4.82
2019-04-11T03:18:14.487Z,4.82
2019-04-11T03:21:23.575Z,4.81
2019-04-11T03:22:03.453Z,4.83
2019-04-11T03:23:16.859Z,4.85
2019-04-11T03:23:54.155Z,4.85
2019-04-11T03:25:00.661Z,4.85
2019-04-11T03:25:57.165Z,4.82
2019-04-11T03:27:09.843Z,4.88
2019-04-11T03:27:54.526Z,4.86
2019-04-11T03:28:59.900Z,4.87
2019-04-11T03:30:04.181Z,4.91
2019-04-11T03:50:27.892Z,4.83
2019-04-11T03:51:04.727Z,4.84
2019-04-11T03:51:55.976Z,4.85
2019-04-11T03:53:09.223Z,4.82
2019-04-11T03:53:53.942Z,4.84
2019-04-11T03:55:06.584Z,4.85
2019-04-11T03:55:56.501Z,4.82
2019-04-11T03:56:54.207Z,4.82
2019-04-11T03:58:01.490Z,4.86
2019-04-11T03:58:59.060Z,4.87
2019-04-11T04:00:06.175Z,4.83
2019-04-11T04:01:11.832Z,4.85
2019-04-11T04:02:00.228Z,4.81
2019-04-11T04:03:06.135Z,4.81
2019-04-11T04:03:55.984Z,4.77
2019-04-11T04:04:54.987Z,4.82
2019-04-11T04:06:02.347Z,4.83
2019-04-11T04:06:58.637Z,4.84
2019-04-11T04:08:06.186Z,4.77
2019-04-11T04:08:56.037Z,4.76
2019-04-11T04:09:54.823Z,4.79
2019-04-11T04:10:53.884Z,4.76
2019-04-11T04:11:59.764Z,4.76
2019-04-11T04:13:06.256Z,4.83
2019-04-11T04:13:56.575Z,4.79
2019-04-11T04:14:54.674Z,4.8
2019-04-11T04:16:41.231Z,4.74
2019-04-11T04:17:11.124Z,4.74
2019-04-11T04:18:00.231Z,4.74
2019-04-11T04:19:05.061Z,4.72
2019-04-11T04:19:56.962Z,4.76
2019-04-11T04:20:53.978Z,4.77
2019-04-11T04:21:59.730Z,4.76
2019-04-11T04:22:57.400Z,4.75
2019-04-11T04:24:04.385Z,4.74
2019-04-11T04:24:56.487Z,4.73
2019-04-11T04:25:55.439Z,4.74
2019-04-11T04:27:03.989Z,4.77
2019-04-11T04:27:59.702Z,4.78
2019-04-11T04:28:59.448Z,4.77
2019-04-11T04:30:06.304Z,4.75
2019-04-11T04:30:54.679Z,4.78
2019-04-11T04:31:57.389Z,4.79
2019-04-11T04:32:57.490Z,4.8
2019-04-11T04:33:59.771Z,4.76
2019-04-11T04:34:56.006Z,4.77
2019-04-11T04:35:56.089Z,4.8
2019-04-11T04:36:57.703Z,4.8
2019-04-11T04:37:54.808Z,4.82
2019-04-11T04:38:54.891Z,4.78
2019-04-11T04:42:38.850Z,4.81
2019-04-11T04:43:09.735Z,4.83
2019-04-11T04:44:01.980Z,4.81
2019-04-11T04:44:58.770Z,4.8
2019-04-11T04:48:20.437Z,4.78
2019-04-11T04:48:56.444Z,4.81
2019-04-11T04:49:54.671Z,4.81
2019-04-11T04:51:13.652Z,4.79
2019-04-11T04:51:56.412Z,4.79
2019-04-11T04:53:02.989Z,4.77
2019-04-11T04:54:00.668Z,4.71
2019-04-11T04:55:06.274Z,4.72
2019-04-11T04:55:54.653Z,4.75
2019-04-11T04:56:55.395Z,4.71
2019-04-11T04:58:02.248Z,4.77
2019-04-11T04:58:58.889Z,4.73
2019-04-11T05:00:03.101Z,4.76
2019-04-11T05:00:58.873Z,4.72
2019-04-11T05:01:56.136Z,4.71
2019-04-11T05:03:02.714Z,4.72
2019-04-11T05:03:59.026Z,4.7
2019-04-11T05:04:58.680Z,4.7
2019-04-11T05:05:55.683Z,4.68
2019-04-11T05:06:55.420Z,4.69
2019-04-11T05:07:58.522Z,4.69
2019-04-11T05:08:53.818Z,4.69
2019-04-11T05:09:58.758Z,4.73
2019-04-11T05:10:58.087Z,4.73
2019-04-11T05:11:55.404Z,4.72
2019-04-11T05:12:57.293Z,4.68
2019-04-11T05:13:58.871Z,4.66
2019-04-11T05:14:56.327Z,4.68
2019-04-11T05:16:18.264Z,4.73
2019-04-11T05:16:54.851Z,4.74
2019-04-11T05:17:53.739Z,4.71
2019-04-11T05:18:54.962Z,4.72
2019-04-11T05:19:54.636Z,4.74
2019-04-11T05:20:54.957Z,4.72
2019-04-11T05:21:54.277Z,4.72
2019-04-11T05:22:54.087Z,4.69
2019-04-11T05:23:56.913Z,4.71
2019-04-11T05:25:05.056Z,4.71
2019-04-11T05:25:55.171Z,4.76
2019-04-11T05:26:53.774Z,4.77
2019-04-11T05:27:54.289Z,4.72
2019-04-11T05:28:54.858Z,4.75
2019-04-11T05:29:53.762Z,4.76
2019-04-11T05:30:53.821Z,4.75
2019-04-11T05:31:54.935Z,4.74
2019-04-11T05:32:53.741Z,4.72
2019-04-11T05:33:54.124Z,4.75
2019-04-11T05:34:53.730Z,4.78
2019-04-11T05:35:54.463Z,4.7
2019-04-11T05:36:54.009Z,4.73
2019-04-11T05:37:53.786Z,4.73
2019-04-11T05:38:54.946Z,4.7
2019-04-11T05:39:53.732Z,4.71
2019-04-11T05:40:54.870Z,4.66
2019-04-11T05:41:54.684Z,4.67
2019-04-11T05:42:56.019Z,4.68
2019-04-11T05:43:53.993Z,4.68
2019-04-11T05:44:55.003Z,4.67
2019-04-11T05:45:58.499Z,4.68
2019-04-11T05:47:07.025Z,4.68
2019-04-11T05:47:58.730Z,4.72
2019-04-11T05:49:05.359Z,4.71
2019-04-11T05:49:54.943Z,4.69
2019-04-11T05:50:54.354Z,4.7
2019-04-11T05:52:04.073Z,4.68
2019-04-11T05:52:54.907Z,4.7
2019-04-11T05:53:56.041Z,4.7
2019-04-11T05:54:54.583Z,4.72
2019-04-11T05:55:53.719Z,4.76
2019-04-11T05:57:01.425Z,4.74
2019-04-11T05:57:54.713Z,4.8
2019-04-11T05:58:53.717Z,4.83
2019-04-11T05:59:59.345Z,4.77
2019-04-11T06:00:59.787Z,4.75
2019-04-11T06:01:55.170Z,4.79
2019-04-11T06:02:53.771Z,4.8
2019-04-11T06:03:53.922Z,4.78
2019-04-11T06:04:58.066Z,4.77
2019-04-11T06:06:04.897Z,4.64
2019-04-11T06:07:01.713Z,4.52
2019-04-11T06:07:58.258Z,4.39
2019-04-11T06:09:02.381Z,4.31
2019-04-11T06:09:54.797Z,4.31
2019-04-11T06:10:54.988Z,4.24
2019-04-11T06:11:58.315Z,4.32
2019-04-11T06:12:54.923Z,4.26
2019-04-11T06:13:53.676Z,4.31
2019-04-11T06:14:53.730Z,4.29
2019-04-11T06:15:53.790Z,4.29
2019-04-11T06:16:59.330Z,4.27
2019-04-11T06:17:56.821Z,4.24
2019-04-11T06:18:54.522Z,4.24
2019-04-11T06:19:53.827Z,4.23
2019-04-11T06:20:53.874Z,4.22
2019-04-11T06:21:53.731Z,4.29
2019-04-11T06:22:54.372Z,4.31
2019-04-11T06:23:54.033Z,4.21
2019-04-11T06:24:54.840Z,4.21
2019-04-11T06:25:53.722Z,4.25
2019-04-11T06:26:54.990Z,4.32
2019-04-11T06:27:54.198Z,4.24
2019-04-11T06:28:57.138Z,4.16
2019-04-11T06:29:55.038Z,4.2
2019-04-11T06:30:55.015Z,4.18
2019-04-11T06:31:53.721Z,4.18
2019-04-11T06:32:54.620Z,4.17
2019-04-11T06:33:53.662Z,4.12
2019-04-11T06:34:53.640Z,4.18
2019-04-11T06:35:54.848Z,4.21
2019-04-11T06:36:55.443Z,4.26
2019-04-11T06:37:56.291Z,4.28
2019-04-11T06:38:54.951Z,4.32
2019-04-11T06:40:02.628Z,4.24
2019-04-11T06:40:54.774Z,4.17
2019-04-11T06:41:55.075Z,4.22
2019-04-11T06:42:54.053Z,4.23
2019-04-11T06:43:53.705Z,4.13
2019-04-11T06:44:54.913Z,4.11
2019-04-11T06:45:54.597Z,4.17
2019-04-11T06:47:05.467Z,4.19
2019-04-11T06:47:53.820Z,4.28
2019-04-11T06:48:54.207Z,4.31
2019-04-11T06:49:53.620Z,4.27
2019-04-11T06:50:53.605Z,4.25
2019-04-11T06:51:55.263Z,4.29
2019-04-11T06:52:53.686Z,4.31
2019-04-11T06:53:54.886Z,4.32
2019-04-11T06:54:54.172Z,4.27
2019-04-11T06:55:55.282Z,4.24
2019-04-11T06:56:54.058Z,4.17
2019-04-11T06:57:54.464Z,4.19
2019-04-11T06:58:57.014Z,4.21
2019-04-11T06:59:53.644Z,4.2
2019-04-11T07:00:53.790Z,4.2
2019-04-11T07:01:55.325Z,4.17
2019-04-11T07:02:53.582Z,4.13
2019-04-11T07:03:53.589Z,4.17
2019-04-11T07:04:54.124Z,4.27
2019-04-11T07:05:53.677Z,4.28
2019-04-11T07:06:53.961Z,4.2
2019-04-11T07:07:54.164Z,4.14
2019-04-11T07:08:54.852Z,4.2
2019-04-11T07:09:53.755Z,4.26
2019-04-11T07:10:55.480Z,4.37
2019-04-11T07:11:53.849Z,4.37
2019-04-11T07:13:00.839Z,4.3
2019-04-11T07:13:53.606Z,4.17
2019-04-11T07:14:53.587Z,4.13
2019-04-11T07:15:55.008Z,4.2
2019-04-11T07:17:13.717Z,4.24
2019-04-11T07:17:54.881Z,4.22
2019-04-11T07:18:54.821Z,4.17
2019-04-11T07:19:53.881Z,4.13
2019-04-11T07:20:54.518Z,4.15
2019-04-11T07:21:53.583Z,4.19
2019-04-11T07:22:53.576Z,4.25
2019-04-11T07:23:53.652Z,4.15
2019-04-11T07:24:53.581Z,4.15
2019-04-11T07:25:54.138Z,4.16
2019-04-11T07:26:54.556Z,4.15
2019-04-11T07:27:53.620Z,4.17
2019-04-11T07:28:54.458Z,4.24
2019-04-11T07:29:54.703Z,4.29
2019-04-11T07:30:54.067Z,4.25
2019-04-11T07:31:54.996Z,4.23
2019-04-11T07:32:53.576Z,4.29
2019-04-11T07:33:54.220Z,4.19
2019-04-11T07:34:54.745Z,4.22
2019-04-11T07:35:53.630Z,4.26
2019-04-11T07:36:53.780Z,4.28
2019-04-11T07:37:53.630Z,4.27
2019-04-11T07:38:54.647Z,4.32
2019-04-11T07:39:54.062Z,4.33
2019-04-11T07:40:56.337Z,4.4
2019-04-11T07:41:53.618Z,4.43
2019-04-11T07:43:15.684Z,4.42
2019-04-11T07:43:54.477Z,4.45
2019-04-11T07:44:53.543Z,4.38
2019-04-11T07:45:53.870Z,4.3
2019-04-11T07:46:54.037Z,4.18
2019-04-11T07:47:55.014Z,4.15
2019-04-11T07:48:55.021Z,4.17
2019-04-11T07:49:58.374Z,4.14
2019-04-11T07:50:55.678Z,4.17
2019-04-11T07:51:54.441Z,4.18
2019-04-11T07:52:53.954Z,4.23
2019-04-11T07:53:54.834Z,4.25
2019-04-11T07:54:53.880Z,4.28
2019-04-11T07:55:53.600Z,4.26
2019-04-11T07:56:53.665Z,4.33
2019-04-11T07:57:54.897Z,4.2
2019-04-11T07:58:56.522Z,4.22
2019-04-11T07:59:53.604Z,4.27
2019-04-11T08:00:56.196Z,4.24
2019-04-11T08:01:53.537Z,4.23
2019-04-11T08:02:53.506Z,4.17
2019-04-11T08:03:53.794Z,4.24
2019-04-11T08:04:53.816Z,4.28
2019-04-11T08:05:54.761Z,4.29
2019-04-11T08:06:54.520Z,4.29
2019-04-11T08:07:53.592Z,4.32
2019-04-11T08:08:56.172Z,4.29
2019-04-11T08:09:53.518Z,4.29
2019-04-11T08:10:54.859Z,4.28
2019-04-11T08:11:53.524Z,4.25
2019-04-11T08:12:54.425Z,4.26
2019-04-11T08:13:56.886Z,4.26
2019-04-11T08:14:53.478Z,4.25
2019-04-11T08:15:53.939Z,4.32
2019-04-11T08:16:53.501Z,4.28
2019-04-11T08:17:54.583Z,4.38
2019-04-11T08:18:53.472Z,4.35
2019-04-11T08:19:53.512Z,4.27
2019-04-11T08:20:53.519Z,4.3
2019-04-11T08:21:54.742Z,4.35
2019-04-11T08:22:53.475Z,4.24
2019-04-11T08:23:54.421Z,4.18
2019-04-11T08:24:53.664Z,4.31
2019-04-11T08:25:53.876Z,4.31
2019-04-11T08:26:53.730Z,4.32
2019-04-11T08:28:12.652Z,4.35
2019-04-11T08:29:16.176Z,4.36
2019-04-11T08:29:54.901Z,4.42
2019-04-11T08:30:53.517Z,4.38
2019-04-11T08:31:57.805Z,4.36
2019-04-11T08:32:54.129Z,4.39
2019-04-11T08:33:53.446Z,4.46
2019-04-11T08:34:53.685Z,4.43
2019-04-11T08:35:59.857Z,4.44
2019-04-11T08:36:54.908Z,4.52
2019-04-11T08:37:54.245Z,4.39
2019-04-11T08:38:53.505Z,4.41
2019-04-11T08:39:53.628Z,4.34
2019-04-11T08:40:53.554Z,4.34
2019-04-11T08:41:53.507Z,4.34
2019-04-11T08:42:53.480Z,4.36
2019-04-11T08:43:55.409Z,4.38
2019-04-11T08:44:54.464Z,4.3
2019-04-11T08:45:54.414Z,4.39
2019-04-11T08:46:54.159Z,4.44
2019-04-11T08:48:00.403Z,4.46
2019-04-11T08:48:54.650Z,4.39
2019-04-11T08:49:58.539Z,4.27
2019-04-11T08:50:54.868Z,4.37
2019-04-11T08:51:53.985Z,4.36
2019-04-11T08:52:54.427Z,4.39
2019-04-11T08:53:53.420Z,4.35
2019-04-11T08:54:53.711Z,4.36
2019-04-11T08:56:05.605Z,4.41
2019-04-11T08:56:53.827Z,4.5
2019-04-11T08:57:54.143Z,4.53
2019-04-11T08:58:53.438Z,4.44
2019-04-11T08:59:53.692Z,4.39
2019-04-11T09:01:00.895Z,4.46
2019-04-11T09:01:54.193Z,4.47
2019-04-11T09:02:53.677Z,4.55
2019-04-11T09:04:15.570Z,4.51
2019-04-11T09:05:20.733Z,4.43
2019-04-11T09:05:53.520Z,4.36
2019-04-11T09:06:54.699Z,4.43
2019-04-11T09:07:56.258Z,4.42
2019-04-11T09:08:54.605Z,4.42
2019-04-11T09:09:55.773Z,4.52
2019-04-11T09:10:56.197Z,4.33
2019-04-11T09:12:12.660Z,4.49
2019-04-11T09:12:53.495Z,4.48
2019-04-11T09:13:53.681Z,4.5
2019-04-11T09:14:55.187Z,4.43
2019-04-11T09:15:53.455Z,4.49
2019-04-11T09:16:54.338Z,4.52
2019-04-11T09:18:15.230Z,4.49
2019-04-11T09:18:54.599Z,4.53
2019-04-11T09:19:53.419Z,4.57
2019-04-11T09:20:54.192Z,4.56
2019-04-11T09:21:53.429Z,4.57
2019-04-11T09:22:53.597Z,4.5
2019-04-11T09:23:54.850Z,4.51
2019-04-11T09:24:53.431Z,4.55
2019-04-11T09:25:56.758Z,4.54
2019-04-11T09:26:58.533Z,4.6
2019-04-11T09:27:55.886Z,4.6
2019-04-11T09:28:53.839Z,4.6
2019-04-11T09:29:54.656Z,4.6
2019-04-11T09:30:53.376Z,4.54
2019-04-11T09:31:54.065Z,4.57
2019-04-11T09:32:53.474Z,4.63
2019-04-11T09:33:55.736Z,4.6
2019-04-11T09:34:54.504Z,4.59
2019-04-11T09:35:53.483Z,4.4
2019-04-11T09:36:53.598Z,4.29
2019-04-11T09:37:54.015Z,4.33
2019-04-11T09:38:53.441Z,4.28
2019-04-11T09:39:53.393Z,4.31
2019-04-11T09:40:54.429Z,4.12
2019-04-11T09:41:54.676Z,4.06
2019-04-11T09:42:53.748Z,4.1
2019-04-11T09:43:53.415Z,4.14
2019-04-11T09:44:53.391Z,4.05
2019-04-11T09:45:54.505Z,4.09
2019-04-11T09:46:57.130Z,4.03
2019-04-11T09:48:22.305Z,4.18
2019-04-11T09:48:54.048Z,4.16
2019-04-11T09:49:54.011Z,4.27
2019-04-11T09:50:53.403Z,4.32
2019-04-11T09:51:54.451Z,4.42
2019-04-11T09:52:56.104Z,4.48
2019-04-11T09:53:53.534Z,4.44
2019-04-11T09:54:54.804Z,4.48
2019-04-11T09:55:53.902Z,4.49
2019-04-11T09:56:54.197Z,4.47
2019-04-11T09:57:54.855Z,4.5
2019-04-11T09:58:53.374Z,4.41
2019-04-11T09:59:54.542Z,4.49
2019-04-11T10:00:53.386Z,4.45
2019-04-11T10:01:54.265Z,4.44
2019-04-11T10:02:53.397Z,4.42
2019-04-11T10:03:53.485Z,4.15
2019-04-11T10:04:54.615Z,4.2
2019-04-11T10:05:54.856Z,4.15
2019-04-11T10:06:53.501Z,4.12
2019-04-11T10:07:54.702Z,4.05
2019-04-11T10:08:53.462Z,4.06
2019-04-11T10:09:57.009Z,4.17
2019-04-11T10:10:53.475Z,4.26
2019-04-11T10:11:56.525Z,4.16
2019-04-11T10:12:54.449Z,4.15
2019-04-11T10:13:53.514Z,4.19
2019-04-11T10:14:53.797Z,4.17
2019-04-11T10:15:53.854Z,4.21
2019-04-11T10:16:53.376Z,4.23
2019-04-11T10:17:54.940Z,4.29
2019-04-11T10:18:53.811Z,4.35
2019-04-11T10:19:54.528Z,4.43
2019-04-11T10:20:53.335Z,4.54
2019-04-11T10:21:54.602Z,4.27
2019-04-11T10:22:54.709Z,4.3
2019-04-11T10:23:53.633Z,4.32
2019-04-11T10:24:54.903Z,4.25
2019-04-11T10:25:53.987Z,4.11
2019-04-11T10:26:53.293Z,4.24
2019-04-11T10:27:53.434Z,4.19
2019-04-11T10:28:53.775Z,4.22
2019-04-11T10:29:54.756Z,4.25
2019-04-11T10:30:53.876Z,4.13
2019-04-11T10:31:53.371Z,4.2
2019-04-11T10:32:53.413Z,4.28
2019-04-11T10:33:53.384Z,4.23
2019-04-11T10:34:54.321Z,4.31
2019-04-11T10:35:54.596Z,4.3
2019-04-11T10:36:53.880Z,4.35
2019-04-11T10:37:53.375Z,4.29
2019-04-11T10:38:55.322Z,4.23
2019-04-11T10:39:53.908Z,4.27
2019-04-11T10:40:54.736Z,4.26
2019-04-11T10:41:55.934Z,4.35
2019-04-11T10:42:54.169Z,4.3
2019-04-11T10:43:54.030Z,4.33
2019-04-11T10:44:54.343Z,4.19
2019-04-11T10:45:53.344Z,4.14
2019-04-11T10:46:53.567Z,4.12
2019-04-11T10:47:56.123Z,4.12
2019-04-11T10:48:53.346Z,4.13
2019-04-11T10:49:54.739Z,4.07
2019-04-11T10:50:53.368Z,4.11
2019-04-11T10:51:54.189Z,4.12
2019-04-11T10:52:53.324Z,4.13
2019-04-11T10:53:53.592Z,4.11
2019-04-11T10:54:55.443Z,4.18
2019-04-11T10:55:53.993Z,4.33
2019-04-11T10:56:53.912Z,4.24
2019-04-11T10:57:54.315Z,4.22
2019-04-11T10:58:55.629Z,4.27
2019-04-11T10:59:54.779Z,4.22
2019-04-11T11:00:53.844Z,4.23
2019-04-11T11:01:53.305Z,4.21
2019-04-11T11:02:53.864Z,4.21
2019-04-11T11:03:53.754Z,4.21
2019-04-11T11:04:53.800Z,4.01
2019-04-11T11:05:53.529Z,4.02
2019-04-11T11:06:54.093Z,4.19
2019-04-11T11:07:53.291Z,4.25
2019-04-11T11:08:53.577Z,4.25
2019-04-11T11:09:54.565Z,4.36
2019-04-11T11:10:53.267Z,4.4
2019-04-11T11:11:53.379Z,4.14
2019-04-11T11:12:53.993Z,4.36
2019-04-11T11:13:54.463Z,4.3
2019-04-11T11:14:53.944Z,4.25
2019-04-11T11:15:53.335Z,4.13
2019-04-11T11:16:53.285Z,4.27
2019-04-11T11:21:07.613Z,4.27
2019-04-11T11:21:53.493Z,4.24
2019-04-11T11:22:54.035Z,4.27
2019-04-11T11:23:54.650Z,4.29
2019-04-11T11:24:54.688Z,4.33
2019-04-11T11:25:53.498Z,4.28
2019-04-11T11:27:05.808Z,4.26
2019-04-11T11:27:53.274Z,4.34
2019-04-11T11:28:53.256Z,4.28
2019-04-11T11:29:54.341Z,4.26
2019-04-11T11:30:54.313Z,4.24
2019-04-11T11:31:54.871Z,4.14
2019-04-11T11:32:54.070Z,4.19
2019-04-11T11:33:54.588Z,4.19
2019-04-11T11:34:55.209Z,4.3
2019-04-11T11:36:02.660Z,4.37
2019-04-11T11:36:57.093Z,4.44
2019-04-11T11:37:53.662Z,4.38
2019-04-11T11:38:54.533Z,4.5
2019-04-11T11:39:53.316Z,4.55
2019-04-11T11:40:54.411Z,4.51
2019-04-11T11:41:54.660Z,4.33
2019-04-11T11:42:53.246Z,4.28
2019-04-11T11:43:53.230Z,4.31
2019-04-11T11:44:53.376Z,4.21
2019-04-11T11:45:58.909Z,4.19
2019-04-11T11:46:54.323Z,4.18
2019-04-11T11:47:53.389Z,4.26
2019-04-11T11:48:54.620Z,4.38
2019-04-11T11:50:16.168Z,4.25
2019-04-11T11:50:53.277Z,4.33
2019-04-11T11:51:58.114Z,4.46
2019-04-11T11:52:53.368Z,4.2
2019-04-11T11:53:53.395Z,4.26
2019-04-11T11:54:53.813Z,4.48
2019-04-11T11:55:53.814Z,4.48
2019-04-11T11:56:54.226Z,4.48
2019-04-11T11:57:53.303Z,4.28
2019-04-11T11:59:01.247Z,4.3
2019-04-11T11:59:53.482Z,4.27
2019-04-11T12:01:09.566Z,4.14
2019-04-11T12:01:54.511Z,4.18
2019-04-11T12:02:57.058Z,4.16
2019-04-11T12:04:05.151Z,4.19
2019-04-11T12:04:54.222Z,4.2
2019-04-11T12:05:54.246Z,4.24
2019-04-11T12:07:08.669Z,4.24
2019-04-11T12:07:56.341Z,4.34
2019-04-11T12:08:54.275Z,4.27
2019-04-11T12:09:53.215Z,4.18
2019-04-11T12:10:53.598Z,4.24
2019-04-11T12:11:57.114Z,4.3
2019-04-11T12:12:54.304Z,4.12
2019-04-11T12:13:53.900Z,4.17
2019-04-11T12:14:53.989Z,4.08
2019-04-11T12:15:53.745Z,4.07
2019-04-11T12:17:08.487Z,4.18
2019-04-11T12:17:54.234Z,4.04
2019-04-11T12:18:55.255Z,4.07
2019-04-11T12:20:16.883Z,4.13
2019-04-11T12:20:59.494Z,4.14
2019-04-11T12:21:53.966Z,4.08
2019-04-11T12:22:55.293Z,4.09
2019-04-11T12:24:09.818Z,4.18
2019-04-11T12:24:53.563Z,4.32
2019-04-11T12:25:54.102Z,4.11
2019-04-11T12:26:54.107Z,4.14
2019-04-11T12:27:54.345Z,4.16
2019-04-11T12:28:54.383Z,4.25
2019-04-11T12:29:53.665Z,4.3
2019-04-11T12:31:05.578Z,4.27
2019-04-11T12:31:53.273Z,4.35
2019-04-11T12:32:53.152Z,4
2019-04-11T12:33:54.181Z,3.99
2019-04-11T12:34:53.171Z,4.15
2019-04-11T12:35:53.162Z,4.07
2019-04-11T12:36:57.114Z,4.26
2019-04-11T12:37:56.119Z,4.45
2019-04-11T12:38:55.624Z,4.3
2019-04-11T12:39:53.432Z,4.42
2019-04-11T12:40:53.246Z,4.49
2019-04-11T12:41:53.161Z,4.2
2019-04-11T12:42:53.171Z,4.33
2019-04-11T12:43:53.185Z,4.29
2019-04-11T12:44:53.136Z,4.15
2019-04-11T12:45:53.216Z,4.11
2019-04-11T12:46:53.548Z,4.15
2019-04-11T12:47:53.456Z,3.97
2019-04-11T12:48:53.217Z,4.16
2019-04-11T12:49:53.706Z,3.96
2019-04-11T12:50:53.169Z,4.07
2019-04-11T12:51:53.292Z,4.17
2019-04-11T12:52:53.190Z,4.1
2019-04-11T12:53:53.142Z,4.19
2019-04-11T12:54:53.195Z,4.1
2019-04-11T12:55:53.148Z,4.19
2019-04-11T12:56:53.233Z,4.23
2019-04-11T12:57:53.190Z,4.29
2019-04-11T12:58:53.137Z,4.06
2019-04-11T12:59:53.171Z,4.22
2019-04-11T13:00:53.128Z,4.31
2019-04-11T13:01:53.263Z,4.23
2019-04-11T13:02:53.212Z,4.04
2019-04-11T13:03:53.227Z,4.3
2019-04-11T13:04:53.186Z,4.2
2019-04-11T13:05:53.112Z,4.38
2019-04-11T13:06:54.152Z,4.25
2019-04-11T13:07:53.250Z,4.37
2019-04-11T13:08:53.454Z,4.39
2019-04-11T13:09:53.196Z,4.44
2019-04-11T13:10:53.159Z,4.34
2019-04-11T13:11:53.224Z,4.23
2019-04-11T13:12:53.108Z,4.32
2019-04-11T13:13:54.322Z,4.25
2019-04-11T13:14:53.148Z,4.19
2019-04-11T13:15:54.902Z,4.18
2019-04-11T13:16:53.110Z,4.01
2019-04-11T13:17:53.189Z,3.94
2019-04-11T13:18:53.143Z,4.07
2019-04-11T13:20:05.442Z,4.32
2019-04-11T13:20:53.147Z,4.14
2019-04-11T13:21:53.282Z,4.12
2019-04-11T13:22:53.208Z,4.02
2019-04-11T13:23:53.211Z,4.11
2019-04-11T13:24:53.238Z,4.05
2019-04-11T13:25:53.088Z,4.19
2019-04-11T13:26:53.179Z,4.06
2019-04-11T13:27:53.108Z,4.25
2019-04-11T13:28:53.158Z,4.19
2019-04-11T13:29:53.096Z,4.09
2019-04-11T13:30:53.160Z,4.1
2019-04-11T13:31:53.110Z,4.15
2019-04-11T13:32:53.122Z,4.15
2019-04-11T13:33:53.176Z,4.05
2019-04-11T13:34:53.179Z,4.17
2019-04-11T13:35:53.070Z,4.27
2019-04-11T13:36:53.126Z,4.24
2019-04-11T13:37:53.145Z,4.22
2019-04-11T13:38:53.233Z,4.29
2019-04-11T13:39:53.132Z,4.17
2019-04-11T13:40:53.450Z,4.07
2019-04-11T13:41:53.081Z,3.98
2019-04-11T13:42:53.130Z,3.92
2019-04-11T13:43:53.073Z,3.93
2019-04-11T13:44:53.125Z,3.84
2019-04-11T13:45:54.342Z,3.87
2019-04-11T13:46:53.089Z,4.02
2019-04-11T13:47:53.589Z,4.1
2019-04-11T13:48:53.134Z,3.82
2019-04-11T13:49:53.103Z,3.92
2019-04-11T13:50:53.075Z,3.95
2019-04-11T13:51:53.302Z,3.96
2019-04-11T13:52:53.254Z,3.98
2019-04-11T13:53:53.084Z,4.17